Time;durP1;ratioP1;P1;durP2;ratioP2;P2;SDS_P1;SDS_P2;PMS_P1;PMS_P2;Temp;Humidity;BMP_temperature;BMP_pressure;BME280_temperature;BME280_humidity;BME280_pressure;Samples;Min_cycle;Max_cycle;Signal;HPM_P1;HPM_P2
2022/05/06 00:02:00;;;;;;;18.80;13.60;;;12.00;99.90;;;;;;6274161;22;20172;-70
2022/05/06 00:04:26;;;;;;;17.40;14.43;;;12.00;99.90;;;;;;6274424;22;20183;-69
2022/05/06 00:06:55;;;;;;;18.58;13.30;;;12.00;99.90;;;;;;6273054;22;20648;-69
2022/05/06 00:09:22;;;;;;;21.90;13.40;;;11.90;99.90;;;;;;6273525;22;20191;-70
2022/05/06 00:11:50;;;;;;;17.23;13.40;;;11.90;99.90;;;;;;6274128;22;20422;-70
2022/05/06 00:14:17;;;;;;;18.05;13.45;;;11.90;99.90;;;;;;6274489;22;20258;-69
2022/05/06 00:16:43;;;;;;;18.77;13.57;;;11.90;99.90;;;;;;6274336;22;20176;-69
2022/05/06 00:19:10;;;;;;;18.17;12.82;;;11.90;99.90;;;;;;6273325;22;20269;-70
2022/05/06 00:21:39;;;;;;;17.93;13.83;;;11.90;99.90;;;;;;6274197;22;20175;-69
2022/05/06 00:24:08;;;;;;;18.20;11.77;;;11.90;99.90;;;;;;6274047;22;20418;-69
2022/05/06 00:26:35;;;;;;;14.48;12.98;;;11.80;99.90;;;;;;6273889;22;20426;-69
2022/05/06 00:29:01;;;;;;;19.08;12.95;;;11.90;99.90;;;;;;6273272;22;20192;-70
2022/05/06 00:31:28;;;;;;;17.08;13.00;;;11.80;99.90;;;;;;6274365;22;20176;-69
2022/05/06 00:33:55;;;;;;;15.17;11.47;;;11.80;99.90;;;;;;6283973;22;20192;-69
2022/05/06 00:36:22;;;;;;;15.37;12.47;;;11.90;99.90;;;;;;6274151;22;20418;-70
2022/05/06 00:38:48;;;;;;;17.40;12.82;;;11.90;99.90;;;;;;6273415;22;20438;-70
2022/05/06 00:41:17;;;;;;;17.13;11.85;;;11.90;99.90;;;;;;6273632;22;20172;-69
2022/05/06 00:43:46;;;;;;;17.98;13.23;;;11.90;99.90;;;;;;6274024;22;20168;-70
2022/05/06 00:46:15;;;;;;;13.90;12.10;;;11.90;99.90;;;;;;6273738;22;20183;-70
2022/05/06 00:48:45;;;;;;;15.15;11.95;;;11.90;99.90;;;;;;6273272;22;20442;-70
2022/05/06 00:51:12;;;;;;;16.35;11.35;;;11.90;99.90;;;;;;6273787;22;20667;-69
2022/05/06 00:53:39;;;;;;;13.82;11.65;;;11.90;99.90;;;;;;6273429;22;20699;-69
2022/05/06 00:56:09;;;;;;;13.57;11.85;;;11.90;99.90;;;;;;6274079;22;20179;-70
2022/05/06 00:58:38;;;;;;;13.70;12.03;;;11.90;99.90;;;;;;6273073;22;20242;-70
2022/05/06 01:01:05;;;;;;;15.07;12.10;;;11.90;99.90;;;;;;6274759;22;20472;-70
2022/05/06 01:03:32;;;;;;;17.73;12.45;;;11.90;99.90;;;;;;6273342;22;20168;-70
2022/05/06 01:06:02;;;;;;;17.58;12.77;;;11.90;99.90;;;;;;6273742;22;20172;-69
2022/05/06 01:08:30;;;;;;;16.23;12.65;;;11.90;99.90;;;;;;6272675;22;20196;-69
2022/05/06 01:10:57;;;;;;;16.63;13.05;;;11.90;99.90;;;;;;6273775;22;20176;-69
2022/05/06 01:13:24;;;;;;;22.73;13.17;;;11.90;99.90;;;;;;6273959;22;20519;-69
2022/05/06 01:15:55;;;;;;;16.63;13.93;;;11.90;99.90;;;;;;6273466;22;20473;-69
2022/05/06 01:18:22;;;;;;;17.38;13.38;;;11.90;99.90;;;;;;6273079;22;20270;-69
2022/05/06 01:20:52;;;;;;;19.92;13.70;;;11.80;99.90;;;;;;6261675;22;20199;-71
2022/05/06 01:23:20;;;;;;;15.32;12.60;;;11.90;99.90;;;;;;6243195;23;20163;-72
2022/05/06 01:25:48;;;;;;;15.55;13.65;;;11.80;99.90;;;;;;6243032;23;20177;-71
2022/05/06 01:28:16;;;;;;;16.83;12.82;;;11.80;99.90;;;;;;6242619;23;20199;-72
2022/05/06 01:30:45;;;;;;;15.90;12.70;;;11.80;99.90;;;;;;6243224;23;20176;-71
2022/05/06 01:33:15;;;;;;;19.25;13.65;;;11.80;99.90;;;;;;6243153;23;20242;-71
2022/05/06 01:35:43;;;;;;;19.23;13.10;;;11.80;99.90;;;;;;6242685;23;20180;-71
2022/05/06 01:38:12;;;;;;;20.52;14.45;;;11.80;99.90;;;;;;6242279;23;20439;-72
2022/05/06 01:40:46;;;;;;;16.55;13.48;;;11.80;99.90;;;;;;6242938;23;20173;-71
2022/05/06 01:43:15;;;;;;;17.17;13.40;;;11.80;99.90;;;;;;6242477;23;20606;-71
2022/05/06 01:45:44;;;;;;;18.60;13.97;;;11.80;99.90;;;;;;6242733;23;20199;-72
2022/05/06 01:48:12;;;;;;;19.23;14.10;;;11.80;99.90;;;;;;6242025;23;20446;-71
2022/05/06 01:50:40;;;;;;;18.33;13.20;;;11.80;99.90;;;;;;6242578;23;20172;-71
2022/05/06 01:53:09;;;;;;;18.87;13.90;;;11.80;99.90;;;;;;6242933;23;20192;-72
2022/05/06 01:55:35;;;;;;;20.35;13.43;;;11.80;99.90;;;;;;6242294;23;20454;-71
2022/05/06 01:58:04;;;;;;;26.13;13.50;;;11.80;99.90;;;;;;6242201;23;20207;-71
2022/05/06 02:00:31;;;;;;;19.92;12.90;;;11.80;99.90;;;;;;6242588;23;20892;-72
2022/05/06 02:02:58;;;;;;;18.10;13.50;;;11.80;99.90;;;;;;6242880;23;20176;-71
2022/05/06 02:05:25;;;;;;;16.73;12.68;;;11.90;99.90;;;;;;6242930;23;20177;-72
2022/05/06 02:07:53;;;;;;;18.23;14.18;;;11.80;99.90;;;;;;6241990;23;20245;-72
2022/05/06 02:10:22;;;;;;;21.13;13.65;;;11.80;99.90;;;;;;6241909;23;20222;-71
2022/05/06 02:12:50;;;;;;;15.80;13.30;;;11.90;99.90;;;;;;6242161;23;20673;-72
2022/05/06 02:15:19;;;;;;;18.58;13.73;;;12.00;99.90;;;;;;6243655;23;20419;-72
2022/05/06 02:17:46;;;;;;;17.50;14.18;;;11.90;99.90;;;;;;6244300;23;20787;-71
2022/05/06 02:20:13;;;;;;;17.48;13.70;;;11.90;99.90;;;;;;6244323;23;20191;-72
2022/05/06 02:22:42;;;;;;;17.55;14.38;;;11.90;99.90;;;;;;6244358;23;20263;-71
2022/05/06 02:25:10;;;;;;;16.10;12.85;;;11.80;99.90;;;;;;6244530;23;20204;-72
2022/05/06 02:27:37;;;;;;;18.27;14.00;;;11.80;99.90;;;;;;6244667;23;20192;-72
2022/05/06 02:35:37;;;;;;;17.17;13.43;;;11.80;99.90;;;;;;6254258;23;20156;-71
2022/05/06 02:38:05;;;;;;;17.30;12.93;;;11.90;99.90;;;;;;6243599;23;20202;-72
2022/05/06 02:40:32;;;;;;;17.75;12.32;;;11.80;99.90;;;;;;6244107;23;20177;-72
2022/05/06 02:42:59;;;;;;;17.25;13.57;;;11.80;99.90;;;;;;6244840;23;20516;-71
2022/05/06 02:45:26;;;;;;;18.35;13.30;;;11.80;99.90;;;;;;6244530;23;20173;-71
2022/05/06 02:47:54;;;;;;;16.60;12.20;;;11.80;99.90;;;;;;6243916;23;20208;-72
2022/05/06 02:50:21;;;;;;;22.17;13.35;;;11.70;99.90;;;;;;6244310;23;20285;-72
2022/05/06 02:52:47;;;;;;;19.15;13.13;;;11.80;99.90;;;;;;6244018;23;20534;-72
2022/05/06 02:55:14;;;;;;;20.08;13.05;;;11.80;99.90;;;;;;6244532;23;20172;-72
2022/05/06 02:57:41;;;;;;;13.65;12.18;;;11.80;99.90;;;;;;6243512;23;20254;-72
2022/05/06 03:00:09;;;;;;;17.58;12.20;;;11.80;99.90;;;;;;6243925;23;20172;-72
2022/05/06 03:02:36;;;;;;;14.77;11.93;;;11.80;99.90;;;;;;6244375;23;20181;-72
2022/05/06 03:05:04;;;;;;;15.00;11.40;;;11.80;99.90;;;;;;6244498;23;20415;-72
2022/05/06 03:07:31;;;;;;;17.08;12.82;;;11.80;99.90;;;;;;6244606;23;20711;-72
2022/05/06 03:09:58;;;;;;;13.73;12.23;;;11.80;99.90;;;;;;6243355;23;20192;-72
2022/05/06 03:12:26;;;;;;;15.55;11.82;;;11.80;99.90;;;;;;6244190;23;20180;-71
2022/05/06 03:14:53;;;;;;;14.43;10.75;;;11.80;99.90;;;;;;6243902;23;20732;-71
2022/05/06 03:17:20;;;;;;;14.75;11.73;;;11.80;99.90;;;;;;6244051;23;20176;-72
2022/05/06 03:19:46;;;;;;;16.83;11.80;;;11.80;99.90;;;;;;6243553;23;20176;-72
2022/05/06 03:22:17;;;;;;;14.82;11.85;;;11.70;99.90;;;;;;6243897;23;20565;-72
2022/05/06 03:24:44;;;;;;;16.75;11.50;;;11.70;99.90;;;;;;6244100;23;20175;-71
2022/05/06 03:27:59;;;;;;;15.40;11.48;;;11.80;99.90;;;;;;6243465;23;20177;-71
2022/05/06 03:29:58;;;;;;;16.27;11.65;;;11.70;99.90;;;;;;6242175;23;20255;-72
2022/05/06 03:32:25;;;;;;;15.15;12.13;;;11.70;99.90;;;;;;6242838;23;20177;-72
2022/05/06 03:34:52;;;;;;;16.65;12.07;;;11.70;99.90;;;;;;6243624;23;20207;-71
2022/05/06 03:37:20;;;;;;;13.50;11.50;;;11.80;99.90;;;;;;6243887;23;20176;-72
2022/05/06 03:39:47;;;;;;;15.77;12.57;;;11.80;99.90;;;;;;6242719;23;20177;-71
2022/05/06 03:42:14;;;;;;;18.73;11.63;;;11.70;99.90;;;;;;6244261;23;20172;-71
2022/05/06 03:44:41;;;;;;;15.20;11.55;;;11.70;99.90;;;;;;6243562;23;20176;-72
2022/05/06 03:47:08;;;;;;;12.45;11.10;;;11.60;99.90;;;;;;6243983;23;20180;-71
2022/05/06 03:49:34;;;;;;;16.23;10.93;;;11.60;99.90;;;;;;6243024;23;20196;-71
2022/05/06 03:52:00;;;;;;;16.25;12.20;;;11.60;99.90;;;;;;6243540;23;20183;-72
2022/05/06 03:54:28;;;;;;;18.77;12.10;;;11.60;99.90;;;;;;6243550;23;20192;-72
2022/05/06 03:56:55;;;;;;;15.68;11.88;;;11.60;99.90;;;;;;6243703;23;20419;-70
2022/05/06 03:59:22;;;;;;;14.88;11.00;;;11.60;99.90;;;;;;6242755;23;20259;-72
2022/05/06 04:01:48;;;;;;;14.90;11.57;;;11.60;99.90;;;;;;6243442;23;20177;-71
2022/05/06 04:04:15;;;;;;;16.00;11.65;;;11.60;99.90;;;;;;6244101;23;20176;-71
2022/05/06 04:06:42;;;;;;;13.38;11.10;;;11.60;99.90;;;;;;6242690;23;20298;-71
2022/05/06 04:09:09;;;;;;;14.73;11.38;;;11.60;99.90;;;;;;6242593;23;20275;-72
2022/05/06 04:11:37;;;;;;;15.87;12.50;;;11.60;99.90;;;;;;6242995;23;20423;-73
2022/05/06 04:14:04;;;;;;;13.38;10.55;;;11.60;99.90;;;;;;6243048;23;20978;-72
2022/05/06 04:16:31;;;;;;;12.70;11.18;;;11.60;99.90;;;;;;6243275;23;20652;-72
2022/05/06 04:18:58;;;;;;;16.20;11.07;;;11.70;99.90;;;;;;6242405;23;20275;-73
2022/05/06 04:24:09;;;;;;;15.23;11.05;;;11.70;99.90;;;;;;6243278;23;20152;-73
2022/05/06 04:26:37;;;;;;;12.90;10.80;;;11.70;99.90;;;;;;6242722;23;20176;-72
2022/05/06 04:29:04;;;;;;;12.07;10.80;;;11.70;99.90;;;;;;6242423;23;20216;-72
2022/05/06 04:31:32;;;;;;;14.05;11.07;;;11.70;99.90;;;;;;6243123;23;20181;-73
2022/05/06 04:33:58;;;;;;;16.90;11.18;;;11.70;99.90;;;;;;6243627;23;20231;-72
2022/05/06 04:36:25;;;;;;;17.75;12.15;;;11.70;99.90;;;;;;6243410;23;20183;-72
2022/05/06 04:38:52;;;;;;;15.25;11.10;;;11.70;99.90;;;;;;6242839;23;20204;-72
2022/05/06 04:41:19;;;;;;;14.25;12.57;;;11.70;99.90;;;;;;6244388;23;20173;-73
2022/05/06 04:43:47;;;;;;;12.20;9.82;;;11.70;99.90;;;;;;6243930;23;20275;-72
2022/05/06 04:46:13;;;;;;;11.30;10.10;;;11.70;99.90;;;;;;6244107;23;20181;-72
2022/05/06 04:48:40;;;;;;;20.08;11.70;;;11.70;99.90;;;;;;6242424;23;20197;-72
2022/05/06 04:51:07;;;;;;;14.38;11.32;;;11.70;99.90;;;;;;6253270;23;20208;-73
2022/05/06 04:53:34;;;;;;;15.20;12.67;;;11.80;99.90;;;;;;6243045;23;20692;-73
2022/05/06 04:56:01;;;;;;;17.45;12.60;;;11.80;99.90;;;;;;6243321;23;20419;-71
2022/05/06 04:58:29;;;;;;;13.50;11.35;;;11.80;99.90;;;;;;6242468;23;20246;-73
2022/05/06 05:00:57;;;;;;;13.40;11.48;;;11.80;99.90;;;;;;6243159;23;20641;-71
2022/05/06 05:03:23;;;;;;;14.73;10.77;;;11.80;99.90;;;;;;6243019;23;20694;-71
2022/05/06 05:05:50;;;;;;;16.05;12.20;;;11.80;99.90;;;;;;6242985;23;20176;-72
2022/05/06 05:08:17;;;;;;;12.38;10.82;;;11.80;99.90;;;;;;6242504;23;20193;-72
2022/05/06 05:10:43;;;;;;;14.85;12.20;;;11.80;99.90;;;;;;6242887;23;20179;-72
2022/05/06 05:13:10;;;;;;;12.35;10.80;;;11.80;99.90;;;;;;6243166;23;20183;-72
2022/05/06 05:15:37;;;;;;;11.95;10.18;;;11.80;99.90;;;;;;6242999;23;20194;-72
2022/05/06 05:18:06;;;;;;;13.38;11.68;;;11.70;99.90;;;;;;6241861;23;20204;-71
2022/05/06 05:20:33;;;;;;;14.32;11.15;;;11.70;99.90;;;;;;6242776;23;20204;-72
2022/05/06 05:23:00;;;;;;;13.10;10.80;;;11.70;99.90;;;;;;6242196;23;20207;-72
2022/05/06 05:25:27;;;;;;;13.07;10.00;;;11.80;99.90;;;;;;6242906;23;20507;-72
2022/05/06 05:27:54;;;;;;;11.80;10.15;;;11.80;99.90;;;;;;6241992;23;20981;-72
2022/05/06 05:30:20;;;;;;;11.80;10.55;;;11.80;99.90;;;;;;6242565;23;20173;-71
2022/05/06 05:32:47;;;;;;;12.65;10.27;;;11.80;99.90;;;;;;6242963;23;20176;-72
2022/05/06 05:35:15;;;;;;;12.35;10.43;;;11.80;99.90;;;;;;6243037;23;20197;-71
2022/05/06 05:37:42;;;;;;;11.40;9.67;;;11.90;99.90;;;;;;6242908;23;20259;-72
2022/05/06 05:40:10;;;;;;;10.67;9.53;;;11.80;99.90;;;;;;6242737;23;20415;-73
2022/05/06 05:42:37;;;;;;;11.95;10.70;;;11.80;99.90;;;;;;6243123;23;20419;-72
2022/05/06 05:50:36;;;;;;;10.48;9.38;;;11.80;99.90;;;;;;6243766;22;20514;-71
2022/05/06 05:53:05;;;;;;;10.90;9.80;;;11.80;99.90;;;;;;6275334;22;20160;-71
2022/05/06 05:55:31;;;;;;;11.18;10.07;;;11.80;99.90;;;;;;6275367;22;20206;-70
2022/05/06 05:57:58;;;;;;;14.48;9.57;;;11.80;99.90;;;;;;6275225;22;20191;-71
2022/05/06 06:00:27;;;;;;;10.93;9.82;;;11.80;99.90;;;;;;6275454;22;20556;-71
2022/05/06 06:02:53;;;;;;;11.43;8.85;;;11.70;99.90;;;;;;6275451;22;20543;-71
2022/05/06 06:05:20;;;;;;;11.57;10.10;;;11.70;99.90;;;;;;6275380;22;20180;-70
2022/05/06 06:07:48;;;;;;;11.48;9.77;;;11.80;99.90;;;;;;6275133;22;20504;-71
2022/05/06 06:10:15;;;;;;;14.05;10.93;;;11.70;99.90;;;;;;6274701;22;20176;-70
2022/05/06 06:12:42;;;;;;;12.50;9.65;;;11.60;99.90;;;;;;6275310;22;20230;-71
2022/05/06 06:15:09;;;;;;;12.75;10.57;;;11.70;99.90;;;;;;6274971;22;20194;-72
2022/05/06 06:17:35;;;;;;;12.55;9.85;;;11.70;99.90;;;;;;6275273;22;20219;-72
2022/05/06 06:20:05;;;;;;;12.52;11.02;;;11.60;99.90;;;;;;6274890;22;20183;-70
2022/05/06 06:22:31;;;;;;;18.20;11.23;;;11.60;99.90;;;;;;6275248;22;20171;-71
2022/05/06 06:24:59;;;;;;;11.50;10.35;;;11.60;99.90;;;;;;6274545;22;20183;-70
2022/05/06 06:27:28;;;;;;;13.90;11.03;;;11.60;99.90;;;;;;6274209;22;20180;-71
2022/05/06 06:29:55;;;;;;;17.23;10.50;;;11.70;99.90;;;;;;6274111;22;20418;-71
2022/05/06 06:32:21;;;;;;;13.98;11.02;;;11.70;99.90;;;;;;6274633;22;20225;-74
2022/05/06 06:34:48;;;;;;;10.25;9.23;;;11.70;99.90;;;;;;6274358;22;20692;-73
2022/05/06 06:37:15;;;;;;;11.52;10.30;;;11.70;99.90;;;;;;6274197;22;20706;-74
2022/05/06 06:39:42;;;;;;;14.45;10.52;;;11.80;99.90;;;;;;6274092;22;20199;-73
2022/05/06 06:42:10;;;;;;;11.07;10.00;;;11.80;99.90;;;;;;6274865;22;20178;-73
2022/05/06 06:44:37;;;;;;;13.07;10.70;;;11.80;99.90;;;;;;6275178;22;20481;-72
2022/05/06 06:47:09;;;;;;;11.57;9.98;;;11.80;99.90;;;;;;6274675;22;20179;-73
2022/05/06 06:49:35;;;;;;;13.30;9.40;;;11.80;99.90;;;;;;6273461;22;20203;-71
2022/05/06 06:52:02;;;;;;;12.90;11.30;;;11.80;99.90;;;;;;6274181;22;20195;-71
2022/05/06 06:54:29;;;;;;;11.50;10.40;;;11.70;99.90;;;;;;6274490;22;20668;-71
2022/05/06 06:56:55;;;;;;;15.25;11.00;;;11.80;99.90;;;;;;6274008;22;20176;-71
2022/05/06 06:59:23;;;;;;;15.15;11.85;;;11.80;99.90;;;;;;6273686;22;20203;-71
2022/05/06 07:01:50;;;;;;;14.40;11.93;;;11.80;99.90;;;;;;6274004;22;20183;-70
2022/05/06 07:04:17;;;;;;;12.40;10.77;;;11.80;99.90;;;;;;6274491;22;20508;-73
2022/05/06 07:12:12;;;;;;;12.40;10.73;;;11.80;99.90;;;;;;6274216;22;20174;-73
2022/05/06 07:14:40;;;;;;;13.52;10.60;;;11.70;99.90;;;;;;6274314;22;20200;-72
2022/05/06 07:17:07;;;;;;;11.98;10.10;;;11.80;99.90;;;;;;6274510;22;20176;-72
2022/05/06 07:19:34;;;;;;;12.25;10.20;;;11.80;99.90;;;;;;6273849;22;20204;-71
2022/05/06 07:22:01;;;;;;;13.43;9.15;;;11.80;99.90;;;;;;6274416;22;20179;-71
2022/05/06 07:24:28;;;;;;;11.25;9.68;;;11.80;99.90;;;;;;6274434;22;20168;-71
2022/05/06 07:26:55;;;;;;;11.43;9.18;;;11.90;99.90;;;;;;6274472;22;20195;-72
2022/05/06 07:29:21;;;;;;;12.48;9.45;;;11.90;99.90;;;;;;6274197;22;20222;-72
2022/05/06 07:31:49;;;;;;;10.18;8.32;;;11.90;99.90;;;;;;6274621;22;20171;-73
2022/05/06 07:34:16;;;;;;;9.93;8.48;;;12.00;99.90;;;;;;6274960;22;20194;-73
2022/05/06 07:36:43;;;;;;;10.45;9.35;;;12.00;99.90;;;;;;6275083;22;20180;-73
2022/05/06 07:39:11;;;;;;;10.07;8.75;;;12.00;99.90;;;;;;6274326;22;20278;-73
2022/05/06 07:41:38;;;;;;;12.98;8.52;;;12.00;99.90;;;;;;6274852;22;20176;-72
2022/05/06 07:44:05;;;;;;;11.10;8.77;;;12.00;99.90;;;;;;6274473;22;20651;-73
2022/05/06 07:46:32;;;;;;;16.47;8.40;;;12.00;99.90;;;;;;6274911;22;20666;-72
2022/05/06 07:49:02;;;;;;;10.82;8.68;;;12.10;99.90;;;;;;6273942;22;20456;-72
2022/05/06 07:51:29;;;;;;;9.98;7.88;;;12.10;99.90;;;;;;6270770;22;20184;-72
2022/05/06 07:53:57;;;;;;;9.07;8.27;;;12.10;99.90;;;;;;6281807;22;20175;-72
2022/05/06 07:56:24;;;;;;;9.80;8.63;;;12.10;99.90;;;;;;6272819;22;20172;-73
2022/05/06 07:58:51;;;;;;;8.98;8.05;;;12.20;99.90;;;;;;6272698;22;20199;-73
2022/05/06 08:04:32;;;;;;;9.43;7.93;;;12.20;99.90;;;;;;6273415;22;20171;-73
2022/05/06 08:06:51;;;;;;;9.00;8.10;;;12.30;99.90;;;;;;6272783;22;20183;-73
2022/05/06 08:09:18;;;;;;;9.57;8.10;;;12.30;99.90;;;;;;6272611;22;20200;-74
2022/05/06 08:11:46;;;;;;;9.88;8.30;;;12.30;99.90;;;;;;6273478;22;20422;-72
2022/05/06 08:14:13;;;;;;;8.97;7.70;;;12.20;99.90;;;;;;6272926;22;20576;-74
2022/05/06 08:16:41;;;;;;;9.30;7.70;;;12.30;99.90;;;;;;6274118;22;20497;-72
2022/05/06 08:19:10;;;;;;;9.37;8.37;;;12.30;99.90;;;;;;6272600;22;20192;-73
2022/05/06 08:21:36;;;;;;;8.73;7.93;;;12.20;99.90;;;;;;6273438;22;20423;-73
2022/05/06 08:24:04;;;;;;;8.48;7.68;;;12.20;99.90;;;;;;6272116;22;20184;-72
2022/05/06 08:26:31;;;;;;;11.48;7.57;;;12.20;99.90;;;;;;6272015;22;20544;-72
2022/05/06 08:28:57;;;;;;;9.68;7.75;;;12.30;99.90;;;;;;6269867;22;20199;-73
2022/05/06 08:31:24;;;;;;;8.50;7.33;;;12.40;99.90;;;;;;6272902;22;20171;-74
2022/05/06 08:33:51;;;;;;;7.77;6.70;;;12.50;99.90;;;;;;6274100;22;20418;-74
2022/05/06 08:36:20;;;;;;;9.43;8.40;;;12.60;99.90;;;;;;6273715;22;20445;-72
2022/05/06 08:38:48;;;;;;;9.97;8.33;;;12.60;99.90;;;;;;6273155;22;20434;-74
2022/05/06 08:41:16;;;;;;;10.47;8.30;;;12.70;99.90;;;;;;6273965;22;20425;-75
2022/05/06 08:43:43;;;;;;;9.13;7.53;;;12.70;99.90;;;;;;6273333;22;20461;-74
2022/05/06 08:51:42;;;;;;;12.02;6.97;;;13.00;99.90;;;;;;6272796;22;20464;-74
2022/05/06 08:54:09;;;;;;;8.20;6.87;;;13.10;99.90;;;;;;6272538;22;20221;-73
2022/05/06 08:56:35;;;;;;;11.40;6.90;;;13.10;99.90;;;;;;6273042;22;20445;-73
2022/05/06 08:59:02;;;;;;;9.23;7.30;;;13.10;99.90;;;;;;6271798;22;20445;-72
2022/05/06 09:01:29;;;;;;;8.40;7.60;;;13.10;99.90;;;;;;6271774;22;20418;-71
2022/05/06 09:03:56;;;;;;;7.67;6.97;;;13.10;99.90;;;;;;6272797;22;20418;-70
2022/05/06 09:06:24;;;;;;;9.80;6.93;;;13.20;99.90;;;;;;6272040;22;20513;-73
2022/05/06 09:08:54;;;;;;;11.70;7.33;;;13.20;99.90;;;;;;6271753;22;20442;-71
2022/05/06 09:12:40;;;;;;;7.73;6.17;;;13.30;99.90;;;;;;6272390;22;21057;-73
2022/05/06 09:14:14;;;;;;;8.80;7.37;;;13.40;99.90;;;;;;6271831;22;20411;-75
2022/05/06 09:16:40;;;;;;;7.63;6.87;;;13.50;99.90;;;;;;6273452;22;20426;-75
2022/05/06 09:19:15;;;;;;;8.43;6.47;;;13.60;99.90;;;;;;6271944;22;20970;-74
2022/05/06 09:22:01;;;;;;;12.53;7.30;;;13.50;99.90;;;;;;6273651;22;20398;-73
2022/05/06 09:24:29;;;;;;;10.10;6.80;;;13.60;99.90;;;;;;6273301;22;20411;-73
2022/05/06 09:27:00;;;;;;;10.70;7.50;;;13.60;99.90;;;;;;6273708;22;20425;-70
2022/05/06 09:29:31;;;;;;;9.37;7.30;;;13.70;99.90;;;;;;6272675;22;20449;-70
2022/05/06 09:32:23;;;;;;;8.77;6.80;;;13.80;99.90;;;;;;6273474;22;20421;-72
2022/05/06 09:34:51;;;;;;;7.80;6.10;;;13.90;99.90;;;;;;6272303;22;20426;-72
2022/05/06 09:37:35;;;;;;;7.23;6.53;;;13.90;99.90;;;;;;6271848;22;20418;-71
2022/05/06 09:40:09;;;;;;;7.37;6.60;;;14.00;99.90;;;;;;6270330;22;20425;-73
2022/05/06 09:42:37;;;;;;;7.20;6.50;;;14.20;99.90;;;;;;6272363;22;20722;-71
2022/05/06 09:45:04;;;;;;;6.97;6.30;;;14.30;99.90;;;;;;6271805;22;20755;-71
2022/05/06 09:47:32;;;;;;;8.13;6.90;;;14.40;99.90;;;;;;6271865;22;20415;-72
2022/05/06 09:49:58;;;;;;;7.23;5.97;;;14.40;99.90;;;;;;6272620;22;20418;-72
2022/05/06 09:52:25;;;;;;;10.43;6.30;;;14.50;99.90;;;;;;6272635;22;20433;-72
2022/05/06 09:54:54;;;;;;;8.10;6.13;;;14.60;99.90;;;;;;6273357;22;20943;-71
2022/05/06 09:57:22;;;;;;;10.00;6.87;;;14.60;99.90;;;;;;6273106;22;20418;-71
2022/05/06 09:59:50;;;;;;;9.90;6.20;;;14.80;99.90;;;;;;6272135;22;20426;-72
2022/05/06 10:02:17;;;;;;;16.00;6.43;;;14.90;99.90;;;;;;6271020;22;20418;-72
2022/05/06 10:04:47;;;;;;;6.30;5.43;;;15.10;99.90;;;;;;6273492;22;20752;-72
2022/05/06 10:07:16;;;;;;;6.20;5.60;;;15.10;99.90;;;;;;6272989;22;20740;-73
2022/05/06 10:09:52;;;;;;;7.07;6.00;;;15.20;99.90;;;;;;6272676;22;20744;-72
2022/05/06 10:12:20;;;;;;;8.80;6.07;;;15.50;99.90;;;;;;6277834;22;20398;-71
2022/05/06 10:14:49;;;;;;;6.27;5.67;;;15.80;99.90;;;;;;6273596;22;20418;-72
2022/05/06 10:17:46;;;;;;;7.83;5.73;;;16.00;99.90;;;;;;6273453;22;20418;-71
2022/05/06 10:20:23;;;;;;;5.53;5.13;;;16.50;99.90;;;;;;6267933;22;20425;-72
2022/05/06 10:22:59;;;;;;;6.33;5.73;;;16.90;99.90;;;;;;6272064;22;20394;-71
2022/05/06 10:25:49;;;;;;;7.23;5.20;;;17.50;99.90;;;;;;6273159;22;20413;-72
2022/05/06 10:34:32;;;;;;;8.70;5.10;;;18.40;99.90;;;;;;6270890;22;20398;-71
2022/05/06 10:37:13;;;;;;;5.33;4.87;;;18.60;99.90;;;;;;6272852;22;20445;-71
2022/05/06 10:39:40;;;;;;;6.20;5.60;;;18.80;99.90;;;;;;6271979;22;20409;-72
2022/05/06 10:42:08;;;;;;;8.00;6.63;;;19.10;99.90;;;;;;6273967;22;20762;-72
2022/05/06 10:44:39;;;;;;;9.13;6.73;;;19.30;99.90;;;;;;6274442;22;20418;-72
2022/05/06 10:47:39;;;;;;;6.50;5.90;;;19.20;99.90;;;;;;6272069;22;20460;-71
2022/05/06 10:50:15;;;;;;;6.27;5.57;;;19.20;99.90;;;;;;6271926;22;20403;-72
2022/05/06 10:52:46;;;;;;;7.23;5.70;;;19.20;99.90;;;;;;6273512;22;20899;-72
2022/05/06 10:55:18;;;;;;;5.97;5.10;;;19.20;99.90;;;;;;6273174;22;20427;-72
2022/05/06 10:58:01;;;;;;;9.50;5.23;;;19.10;99.90;;;;;;6273260;22;20445;-71
2022/05/06 11:00:30;;;;;;;11.63;5.90;;;19.50;99.90;;;;;;6270271;22;20842;-71
2022/05/06 11:03:01;;;;;;;8.57;6.07;;;20.20;99.70;;;;;;6273373;22;20418;-72
2022/05/06 11:05:30;;;;;;;11.07;6.20;;;20.60;99.90;;;;;;6273610;22;20442;-73
2022/05/06 11:08:00;;;;;;;5.07;4.67;;;20.70;99.90;;;;;;6273284;22;20434;-71
2022/05/06 11:10:28;;;;;;;6.37;5.67;;;21.10;99.90;;;;;;6273391;22;20418;-72
2022/05/06 11:12:57;;;;;;;11.20;6.63;;;21.50;98.80;;;;;;6283622;22;20425;-73
2022/05/06 11:15:26;;;;;;;6.83;6.13;;;22.00;99.40;;;;;;6273083;22;20876;-71
2022/05/06 11:17:56;;;;;;;7.10;6.50;;;22.20;98.40;;;;;;6273739;22;20434;-71
2022/05/06 11:20:26;;;;;;;7.27;5.60;;;22.10;97.80;;;;;;6271918;22;20430;-72
2022/05/06 11:23:05;;;;;;;5.83;5.13;;;22.30;98.50;;;;;;6273465;22;20407;-72
2022/05/06 11:25:33;;;;;;;8.83;5.70;;;22.30;96.90;;;;;;6273109;22;20407;-72
2022/05/06 11:28:01;;;;;;;6.97;5.73;;;22.40;97.50;;;;;;6272761;22;20446;-73
2022/05/06 11:30:29;;;;;;;7.00;5.60;;;22.30;96.30;;;;;;6274100;22;20422;-71
2022/05/06 11:32:58;;;;;;;6.13;5.63;;;21.90;96.20;;;;;;6274293;22;20429;-71
2022/05/06 11:35:43;;;;;;;6.20;5.60;;;21.70;96.80;;;;;;6273452;22;20887;-71
2022/05/06 11:38:11;;;;;;;5.90;5.40;;;22.00;98.20;;;;;;6272838;22;20444;-72
2022/05/06 11:40:39;;;;;;;4.97;4.40;;;22.30;96.80;;;;;;6273447;22;20426;-73
2022/05/06 11:43:08;;;;;;;6.13;5.63;;;22.60;96.00;;;;;;6273707;22;20425;-72
2022/05/06 11:48:24;;;;;;;5.70;5.00;;;22.10;94.80;;;;;;6282400;22;20856;-71
2022/05/06 11:50:55;;;;;;;5.50;5.00;;;21.50;95.90;;;;;;6273318;22;20426;-72
2022/05/06 11:53:27;;;;;;;6.97;5.23;;;21.10;97.00;;;;;;6272959;22;20429;-72
2022/05/06 11:55:55;;;;;;;5.90;5.30;;;21.10;97.40;;;;;;6272883;22;20941;-72
2022/05/06 11:58:23;;;;;;;5.77;4.80;;;21.00;96.70;;;;;;6272786;22;20449;-72
2022/05/06 12:00:52;;;;;;;9.50;5.40;;;20.80;96.30;;;;;;6273941;22;20798;-73
2022/05/06 12:03:19;;;;;;;6.87;5.67;;;20.60;97.70;;;;;;6273012;22;20485;-73
2022/05/06 12:06:00;;;;;;;6.37;4.93;;;20.60;97.50;;;;;;6273374;22;20457;-74
2022/05/06 12:08:30;;;;;;;6.07;5.47;;;20.40;96.80;;;;;;6272698;22;20477;-72
2022/05/06 12:11:01;;;;;;;5.10;4.60;;;20.20;96.80;;;;;;6273724;22;20405;-72
2022/05/06 12:13:40;;;;;;;5.83;5.23;;;20.00;96.80;;;;;;6274096;22;20431;-75
2022/05/06 12:16:12;;;;;;;6.23;5.47;;;20.00;97.40;;;;;;6273858;22;20430;-75
2022/05/06 12:18:53;;;;;;;5.93;5.37;;;20.10;97.70;;;;;;6272543;22;20423;-74
2022/05/06 12:21:22;;;;;;;8.40;5.83;;;20.00;96.30;;;;;;6273366;22;20433;-74
2022/05/06 12:23:56;;;;;;;6.30;5.70;;;19.90;97.10;;;;;;6273941;22;20419;-73
2022/05/06 12:26:54;;;;;;;7.90;5.03;;;19.90;96.90;;;;;;6272091;22;20410;-75
2022/05/06 12:29:21;;;;;;;6.37;5.33;;;19.80;97.40;;;;;;6273184;22;20434;-74
2022/05/06 12:31:48;;;;;;;6.43;5.30;;;19.70;98.60;;;;;;6275005;22;20736;-73
2022/05/06 12:34:15;;;;;;;6.93;5.43;;;19.90;98.00;;;;;;6273321;22;20464;-74
2022/05/06 12:36:42;;;;;;;6.10;5.20;;;19.90;97.10;;;;;;6273482;22;20513;-73
2022/05/06 12:39:21;;;;;;;6.90;5.70;;;19.90;97.30;;;;;;6272577;22;20442;-75
2022/05/06 12:41:48;;;;;;;5.60;5.10;;;19.80;97.50;;;;;;6274099;22;20424;-72
2022/05/06 12:44:18;;;;;;;6.07;5.47;;;19.70;97.80;;;;;;6272598;22;20422;-74
2022/05/06 12:46:45;;;;;;;7.13;5.40;;;19.80;98.00;;;;;;6273092;22;20433;-74
2022/05/06 12:51:56;;;;;;;6.90;5.87;;;19.80;97.60;;;;;;6283368;22;20468;-73
2022/05/06 12:54:26;;;;;;;5.13;4.70;;;19.70;96.80;;;;;;6272562;22;20425;-72
2022/05/06 12:56:53;;;;;;;8.13;5.10;;;19.60;97.00;;;;;;6272404;22;20438;-71
2022/05/06 12:59:20;;;;;;;7.83;6.20;;;19.70;97.70;;;;;;6271340;22;20438;-74
2022/05/06 13:01:47;;;;;;;5.77;5.00;;;19.70;97.40;;;;;;6272364;22;20981;-75
2022/05/06 13:04:13;;;;;;;7.30;5.27;;;19.70;96.60;;;;;;6273048;22;20426;-74
2022/05/06 13:06:40;;;;;;;6.60;5.33;;;19.50;97.30;;;;;;6273722;22;20438;-72
2022/05/06 13:09:08;;;;;;;6.50;5.90;;;19.60;97.30;;;;;;6270491;22;20745;-89
2022/05/06 13:11:37;;;;;;;5.60;5.10;;;19.70;97.10;;;;;;6289873;22;20758;-91
2022/05/06 13:14:03;;;;;;;8.30;5.83;;;19.70;96.80;;;;;;6290153;22;20417;-90
2022/05/06 13:16:31;;;;;;;8.63;5.10;;;19.50;96.90;;;;;;6279393;22;20450;-89
2022/05/06 13:18:58;;;;;;;7.33;5.17;;;19.50;97.50;;;;;;6278287;22;20429;-91
2022/05/06 13:21:25;;;;;;;6.20;5.47;;;19.50;97.70;;;;;;6276407;22;20505;-90
2022/05/06 13:23:51;;;;;;;6.43;5.13;;;19.50;97.30;;;;;;6276275;22;20540;-90